メインページ
METAR-TAF:

METAR-TAF

空港 :

サントペコア国際空港

ルーガンビル, エスピリトゥサント島, バヌアツ

緯度: 15-31S, 経度: 167-13E, 海抜: 41m

現時点の気象観測

当レポートは1時間31分前の09:00(UTC)に作成
南東の風 3kt
気温 25°C
湿度 89%
気圧 1010 hPa

METAR: NVSS 220900Z AUTO 14003KT //// // NCD 25/23 Q1010 RMK NIL

時間: 21:31 (10:31 UTC)

予報

当レポートは6時間1分前の04:30(UTC)に作成
予報は22日の 06時(UTC)から 23日の 06時(UTC)まで有効
東/南東の風 10kt
視程: 7000m
高度2000ftの雲は散在している
高度4000ftの千切れ雲あり
高度1800ftの千切れ雲あり
高度4000ftの曇り
にわか雨
確率 40%
間 INからTE UTC
視程: 5000m
高度1600ftの千切れ雲あり
高度2500ftの雲はほとんどない, 積乱雲.
高度4000ftの曇り
激しい雷雨, 小雨
22日の 07時(UTC)から 22日の 09時(UTC)まで徐々に
東/南東の風 5kt

TAF: NVSS 220430Z 2206/2306 11010KT 9999 SCT020 BKN040 INTER 2206/2212 7000 SHRA BKN018 OVC040 PROB40 INTER 2206/2208 5000 -TSRA BKN016 FEW025CB OVC040 BECMG 2207/2209 11005KT

4,000以上の空港の気象観測と天気予報(METAR報とTAF報)

利用可能な観測所は地図上に黄色い丸と赤い丸で示す。

丸の上にカーソルを重ねると観測所名を参照できる。

次にクリックすると気象観測と天気予報を参照できる。

マップの切り替え:黒色「×」印の緑ボタンをクリックして拡大、「-」印の緑ボタンをクリックして縮小、緑色の三角印をクリックして隣りの地図に切り替え


METAR-TAF: